Atlantic Island — C4VM2 — position and weather

sailwx.info

Track history (hours):
 
Tides and Currents Weather Stations Pressure Air Temp Water Temp Dewpoint Dewpoint Depression Visibility Wind Speed Wind Dir Waves Ship Positions

Atlantic Island

Last reported at 2018-Jun-18 19:44 UTC. Time now 2018-Jun-20 15:30 UTC.
Position N 35°58' W 005°45'.

Length 95 m; draft 3.8 m.

Type: Cargo ship. MMSI: 210754000.

Date/timePositionNaut miles runAvg speedWind from/ knotsBaromVisibWave heightAir tempDewpointWater temp
2018-Jun-18 19:44N 35°58' W 005°45'2 7.5
2018-Jun-18 19:24N 35°58' W 005°42'3 7.8
2018-Jun-18 18:58N 35°58' W 005°38'4 8.8
2018-Jun-18 18:31N 35°58' W 005°33'5 0.3
2018-Jun-18 04:30N 35°54' W 005°30'3 3.2
2018-Jun-18 03:43N 35°54' W 005°33'0 1.7
2018-Jun-18 03:30N 35°54' W 005°34'2 2.1
2018-Jun-18 02:20N 35°52' W 005°35'0 0.1
2018-Jun-18 01:57N 35°52' W 005°35'0 0.0
2018-Jun-18 01:27N 35°52' W 005°35'0 0.0
2018-Jun-18 00:57N 35°52' W 005°35'0 0.0
2018-Jun-18 00:27N 35°52' W 005°35'0 0.0
2018-Jun-17 23:57N 35°52' W 005°35'0 0.0
2018-Jun-17 23:27N 35°52' W 005°35'0 0.1
2018-Jun-17 21:15N 35°52' W 005°35'0 0.1
2018-Jun-17 19:50N 35°52' W 005°35'0 0.7
2018-Jun-17 19:27N 35°52' W 005°35'0 0.4
2018-Jun-17 18:57N 35°52' W 005°35'0 0.1
2018-Jun-17 15:08N 35°52' W 005°35'0 0.0
2018-Jun-17 14:50N 35°52' W 005°35'0 0.0
2018-Jun-17 13:44N 35°52' W 005°35'4 0.9
2018-Jun-17 08:50N 35°55' W 005°32'3 9.0
2018-Jun-17 08:30N 35°58' W 005°31'4 7.3
2018-Jun-17 08:00N 35°59' W 005°27'4 7.8
2018-Jun-17 07:30N 36°00' W 005°22'4 7.5
2018-Jun-17 07:00N 36°01' W 005°18'3 6.9
2018-Jun-17 06:30N 36°01' W 005°14'4 7.3
2018-Jun-17 06:00N 36°02' W 005°09'201 9.0
2018-Jun-16 07:47N 37°07' W 001°13'310.1
2018-Jun-16 07:27N 37°09' W 001°10'510.0
2018-Jun-16 07:00N 37°12' W 001°05'510.0
2018-Jun-16 06:30N 37°16' W 001°01'510.0
2018-Jun-16 05:57N 37°20' W 000°56'4 9.9
2018-Jun-16 05:30N 37°23' W 000°52'5 9.6
2018-Jun-16 05:00N 37°26' W 000°47'5 9.6
2018-Jun-16 04:30N 37°29' W 000°42'510.2
2018-Jun-16 04:00N 37°32' W 000°38'510.5
2018-Jun-16 03:30N 37°36' W 000°33'510.2
2018-Jun-16 03:00N 37°40' W 000°29'510.2
2018-Jun-16 02:30N 37°44' W 000°26'610.2
2018-Jun-16 01:55N 37°49' W 000°21'410.1
2018-Jun-16 01:30N 37°53' W 000°18'510.0
2018-Jun-16 00:58N 37°57' W 000°15'510.0
2018-Jun-16 00:30N 38°01' W 000°12'510.0
2018-Jun-16 00:00N 38°05' W 000°08'5 9.9
2018-Jun-15 23:30N 38°09' W 000°05'5 9.8
2018-Jun-15 22:59N 38°14' W 000°01'5 9.8
2018-Jun-15 22:30N 38°18' E 000°02'9 9.6
2018-Jun-15 21:35N 38°25' E 000°08'1 9.7
2018-Jun-15 21:30N 38°26' E 000°09'5 9.5
2018-Jun-15 21:00N 38°30' E 000°12'5 9.3
2018-Jun-15 20:30N 38°34' E 000°15'5 9.1
2018-Jun-15 20:00N 38°37' E 000°19'5 9.3
2018-Jun-15 19:27N 38°42' E 000°22'3 7.7
2018-Jun-15 19:00N 38°45' E 000°22'5 9.3
2018-Jun-15 18:30N 38°49' E 000°19'47 9.0
2018-Jun-15 13:17N 39°31' W 000°08'8 0.3
2018-Jun-14 08:33N 39°38' W 000°13'0 5.2
2018-Jun-14 08:29N 39°38' W 000°12'  
2018-Jun-11 16:27N 39°35' W 000°11'410.0
2018-Jun-11 16:00N 39°31' W 000°13'510.0
2018-Jun-11 15:29N 39°26' W 000°17'2 4.2
2018-Jun-11 15:00N 39°27' W 000°19'0 0.0
2018-Jun-11 14:30N 39°27' W 000°19'0 0.0
2018-Jun-11 14:00N 39°27' W 000°19'0 0.0
2018-Jun-11 13:30N 39°27' W 000°19'0 0.0
2018-Jun-11 13:00N 39°27' W 000°19'0 0.0
2018-Jun-11 12:30N 39°27' W 000°19'0 0.0
2018-Jun-11 12:00N 39°27' W 000°19'0 0.0
2018-Jun-11 11:30N 39°27' W 000°19'0 0.0
2018-Jun-11 11:00N 39°27' W 000°19'0 0.0
2018-Jun-11 10:30N 39°27' W 000°19'0 0.0
2018-Jun-11 09:57N 39°27' W 000°19'0 0.0
2018-Jun-11 09:30N 39°27' W 000°19'0 0.0
2018-Jun-11 09:00N 39°27' W 000°19'0 0.0
2018-Jun-11 08:30N 39°27' W 000°19'0 0.0
2018-Jun-11 08:00N 39°27' W 000°19'0 0.0
2018-Jun-11 07:30N 39°27' W 000°19'0 0.0
2018-Jun-11 07:00N 39°27' W 000°19'0 0.0
2018-Jun-11 06:30N 39°27' W 000°19'0 0.0
2018-Jun-11 06:00N 39°27' W 000°19'0 0.0
2018-Jun-11 05:30N 39°27' W 000°19'0 0.0
2018-Jun-11 05:00N 39°27' W 000°19'0 0.0
2018-Jun-11 04:30N 39°27' W 000°19'0 0.0
2018-Jun-11 04:00N 39°27' W 000°19'0 0.0
2018-Jun-11 03:27N 39°27' W 000°19'0 0.0
2018-Jun-11 03:00N 39°27' W 000°19'0 0.0
2018-Jun-11 02:30N 39°27' W 000°19'0 0.0
2018-Jun-11 02:00N 39°27' W 000°19'0 0.0
2018-Jun-11 01:30N 39°27' W 000°19'0 0.0
2018-Jun-11 01:00N 39°27' W 000°19'0 0.0
2018-Jun-11 00:30N 39°27' W 000°19'0 0.0
2018-Jun-11 00:00N 39°27' W 000°19'0 0.0
2018-Jun-10 23:30N 39°27' W 000°19'0 0.0
2018-Jun-10 23:00N 39°27' W 000°19'0 0.0
2018-Jun-10 22:30N 39°27' W 000°19'0 0.0
2018-Jun-10 22:00N 39°27' W 000°19'0 0.0
2018-Jun-10 21:30N 39°27' W 000°19'0 0.0
2018-Jun-10 21:00N 39°27' W 000°19'0 0.0
2018-Jun-10 20:30N 39°27' W 000°19'0 0.0
2018-Jun-10 20:00N 39°27' W 000°19'0 0.0
2018-Jun-10 19:30N 39°27' W 000°19'0 0.0
2018-Jun-10 19:00N 39°27' W 000°19'0 0.0
2018-Jun-10 18:30N 39°27' W 000°19'0 0.0
2018-Jun-10 18:00N 39°27' W 000°19'0 0.0
2018-Jun-10 17:30N 39°27' W 000°19'0 0.0
2018-Jun-10 17:00N 39°27' W 000°19'0 0.0
2018-Jun-10 16:30N 39°27' W 000°19'0 0.0
2018-Jun-10 16:00N 39°27' W 000°19'0 0.0
2018-Jun-10 15:30N 39°27' W 000°19'0 0.0
2018-Jun-10 15:00N 39°27' W 000°19'0 0.0
2018-Jun-10 14:30N 39°27' W 000°19'0 0.0
2018-Jun-10 13:30N 39°27' W 000°19'0 0.0
2018-Jun-10 13:00N 39°27' W 000°19'0 0.0
2018-Jun-10 12:30N 39°27' W 000°19'0 0.0
2018-Jun-10 12:00N 39°27' W 000°19'0 0.0
2018-Jun-10 11:30N 39°27' W 000°19'0 0.0
2018-Jun-10 11:00N 39°27' W 000°19'0 0.0
2018-Jun-10 10:30N 39°27' W 000°19'0 0.0
2018-Jun-10 10:00N 39°27' W 000°19'0 0.0
2018-Jun-10 09:29N 39°27' W 000°19'0 0.0
2018-Jun-10 08:59N 39°27' W 000°19'0 0.0
2018-Jun-10 08:29N 39°27' W 000°19'0 0.0
2018-Jun-10 07:59N 39°27' W 000°19'0 0.0
2018-Jun-10 07:29N 39°27' W 000°19'0 0.0
2018-Jun-10 06:59N 39°27' W 000°19'0 0.0
2018-Jun-10 06:29N 39°27' W 000°19'0 0.0
2018-Jun-10 05:59N 39°27' W 000°19'0 0.0
2018-Jun-10 05:29N 39°27' W 000°19'0 0.0
2018-Jun-10 04:59N 39°27' W 000°19'0 0.0
2018-Jun-10 04:29N 39°27' W 000°19'0 0.0
2018-Jun-10 03:59N 39°27' W 000°19'0 0.0
2018-Jun-10 03:29N 39°27' W 000°19'0 0.0
2018-Jun-10 02:59N 39°27' W 000°19'0 0.0
2018-Jun-10 02:29N 39°27' W 000°19'0 0.0
2018-Jun-10 01:59N 39°27' W 000°19'0 0.0
2018-Jun-10 01:29N 39°27' W 000°19'0 0.0
2018-Jun-10 00:59N 39°27' W 000°19'0 0.0
2018-Jun-10 00:29N 39°27' W 000°19'0 0.0
2018-Jun-09 23:59N 39°27' W 000°19'0 0.0
2018-Jun-09 23:29N 39°27' W 000°19'0 0.0
2018-Jun-09 22:59N 39°27' W 000°19'0 0.0
2018-Jun-09 22:29N 39°27' W 000°19'0 0.0
2018-Jun-09 21:59N 39°27' W 000°19'0 0.0
2018-Jun-09 21:29N 39°27' W 000°19'0 0.0
2018-Jun-09 20:59N 39°27' W 000°19'0 0.0
2018-Jun-09 20:29N 39°27' W 000°19'0 0.0
2018-Jun-09 19:59N 39°27' W 000°19'0 0.0
2018-Jun-09 19:29N 39°27' W 000°19'0 0.0
2018-Jun-09 18:59N 39°27' W 000°19'0 0.0
2018-Jun-09 18:20N 39°27' W 000°19'0 0.0
2018-Jun-09 17:50N 39°27' W 000°19'0 0.0
2018-Jun-09 17:29N 39°27' W 000°19'0 0.0
2018-Jun-09 16:59N 39°27' W 000°19'0 0.0
2018-Jun-09 16:29N 39°27' W 000°19'0 0.0
2018-Jun-09 15:59N 39°27' W 000°19'0 0.0
2018-Jun-09 14:59N 39°27' W 000°19'0 0.0
2018-Jun-09 14:29N 39°27' W 000°19'0 0.0
2018-Jun-09 13:59N 39°27' W 000°19'0 0.0
2018-Jun-09 13:29N 39°27' W 000°19'0 0.0
2018-Jun-09 12:59N 39°27' W 000°19'0 0.0
2018-Jun-09 12:29N 39°27' W 000°19'0 0.0
2018-Jun-09 11:59N 39°27' W 000°19'0 0.0
2018-Jun-09 11:29N 39°27' W 000°19'0 0.0
2018-Jun-09 10:59N 39°27' W 000°19'0 0.0
2018-Jun-09 10:29N 39°27' W 000°19'0 0.0
2018-Jun-09 09:59N 39°27' W 000°19'0 0.0
2018-Jun-09 09:29N 39°27' W 000°19'0 0.0
2018-Jun-09 08:59N 39°27' W 000°19'0 0.0
2018-Jun-09 08:29N 39°27' W 000°19'0 0.0
2018-Jun-09 07:59N 39°27' W 000°19'0 0.0
2018-Jun-09 07:29N 39°27' W 000°19'0 0.0
2018-Jun-09 06:59N 39°27' W 000°19'0 0.0
2018-Jun-09 06:29N 39°27' W 000°19'0 0.0
2018-Jun-09 05:59N 39°27' W 000°19'0 0.0
2018-Jun-09 05:29N 39°27' W 000°19'0 0.0
2018-Jun-09 04:59N 39°27' W 000°19'0 0.0
2018-Jun-09 04:29N 39°27' W 000°19'0 0.0
2018-Jun-09 03:59N 39°27' W 000°19'0 0.0
2018-Jun-09 03:29N 39°27' W 000°19'0 0.0
2018-Jun-09 02:59N 39°27' W 000°19'0 0.0
2018-Jun-09 02:29N 39°27' W 000°19'0 0.0
2018-Jun-09 01:59N 39°27' W 000°19'0 0.0
2018-Jun-09 01:29N 39°27' W 000°19'0 0.0
2018-Jun-09 00:59N 39°27' W 000°19'0 0.0
2018-Jun-09 00:29N 39°27' W 000°19'0 0.0
2018-Jun-08 23:59N 39°27' W 000°19'0 0.0
2018-Jun-08 23:29N 39°27' W 000°19'0 0.0
2018-Jun-08 22:59N 39°27' W 000°19'0 0.0
2018-Jun-08 22:28N 39°27' W 000°19'0 0.0
2018-Jun-08 21:58N 39°27' W 000°19'0 0.0
2018-Jun-08 21:28N 39°27' W 000°19'0 0.0
2018-Jun-08 20:52N 39°27' W 000°19'0 0.0
2018-Jun-08 20:28N 39°27' W 000°19'0 0.0
2018-Jun-08 19:58N 39°27' W 000°19'  
Track history (hours):
 
Tides and Currents Weather Stations Pressure Air Temp Water Temp Dewpoint Dewpoint Depression Visibility Wind Speed Wind Dir Waves Ship Positions

Atlantic Island

Last reported at 2018-Jun-18 19:44 UTC. Time now 2018-Jun-20 15:30 UTC.
Position N 35°58' W 005°45'.

Length 95 m; draft 3.8 m.

Type: Cargo ship. MMSI: 210754000.

Date/timePositionNaut miles runAvg speedWind from/ knotsBaromVisibWave heightAir tempDewpointWater temp
2018-Jun-18 19:44N 35°58' W 005°45'2 7.5
2018-Jun-18 19:24N 35°58' W 005°42'3 7.8
2018-Jun-18 18:58N 35°58' W 005°38'4 8.8
2018-Jun-18 18:31N 35°58' W 005°33'5 0.3
2018-Jun-18 04:30N 35°54' W 005°30'3 3.2
2018-Jun-18 03:43N 35°54' W 005°33'0 1.7
2018-Jun-18 03:30N 35°54' W 005°34'2 2.1
2018-Jun-18 02:20N 35°52' W 005°35'0 0.1
2018-Jun-18 01:57N 35°52' W 005°35'0 0.0
2018-Jun-18 01:27N 35°52' W 005°35'0 0.0
2018-Jun-18 00:57N 35°52' W 005°35'0 0.0
2018-Jun-18 00:27N 35°52' W 005°35'0 0.0
2018-Jun-17 23:57N 35°52' W 005°35'0 0.0
2018-Jun-17 23:27N 35°52' W 005°35'0 0.1
2018-Jun-17 21:15N 35°52' W 005°35'0 0.1
2018-Jun-17 19:50N 35°52' W 005°35'0 0.7
2018-Jun-17 19:27N 35°52' W 005°35'0 0.4
2018-Jun-17 18:57N 35°52' W 005°35'0 0.1
2018-Jun-17 15:08N 35°52' W 005°35'0 0.0
2018-Jun-17 14:50N 35°52' W 005°35'0 0.0
2018-Jun-17 13:44N 35°52' W 005°35'4 0.9
2018-Jun-17 08:50N 35°55' W 005°32'3 9.0
2018-Jun-17 08:30N 35°58' W 005°31'4 7.3
2018-Jun-17 08:00N 35°59' W 005°27'4 7.8
2018-Jun-17 07:30N 36°00' W 005°22'4 7.5
2018-Jun-17 07:00N 36°01' W 005°18'3 6.9
2018-Jun-17 06:30N 36°01' W 005°14'4 7.3
2018-Jun-17 06:00N 36°02' W 005°09'201 9.0
2018-Jun-16 07:47N 37°07' W 001°13'310.1
2018-Jun-16 07:27N 37°09' W 001°10'510.0
2018-Jun-16 07:00N 37°12' W 001°05'510.0
2018-Jun-16 06:30N 37°16' W 001°01'510.0
2018-Jun-16 05:57N 37°20' W 000°56'4 9.9
2018-Jun-16 05:30N 37°23' W 000°52'5 9.6
2018-Jun-16 05:00N 37°26' W 000°47'5 9.6
2018-Jun-16 04:30N 37°29' W 000°42'510.2
2018-Jun-16 04:00N 37°32' W 000°38'510.5
2018-Jun-16 03:30N 37°36' W 000°33'510.2
2018-Jun-16 03:00N 37°40' W 000°29'510.2
2018-Jun-16 02:30N 37°44' W 000°26'610.2
2018-Jun-16 01:55N 37°49' W 000°21'410.1
2018-Jun-16 01:30N 37°53' W 000°18'510.0
2018-Jun-16 00:58N 37°57' W 000°15'510.0
2018-Jun-16 00:30N 38°01' W 000°12'510.0
2018-Jun-16 00:00N 38°05' W 000°08'5 9.9
2018-Jun-15 23:30N 38°09' W 000°05'5 9.8
2018-Jun-15 22:59N 38°14' W 000°01'5 9.8
2018-Jun-15 22:30N 38°18' E 000°02'9 9.6
2018-Jun-15 21:35N 38°25' E 000°08'1 9.7
2018-Jun-15 21:30N 38°26' E 000°09'5 9.5
2018-Jun-15 21:00N 38°30' E 000°12'5 9.3
2018-Jun-15 20:30N 38°34' E 000°15'5 9.1
2018-Jun-15 20:00N 38°37' E 000°19'5 9.3
2018-Jun-15 19:27N 38°42' E 000°22'3 7.7
2018-Jun-15 19:00N 38°45' E 000°22'5 9.3
2018-Jun-15 18:30N 38°49' E 000°19'47 9.0
2018-Jun-15 13:17N 39°31' W 000°08'8 0.3
2018-Jun-14 08:33N 39°38' W 000°13'0 5.2
2018-Jun-14 08:29N 39°38' W 000°12'  
2018-Jun-11 16:27N 39°35' W 000°11'410.0
2018-Jun-11 16:00N 39°31' W 000°13'510.0
2018-Jun-11 15:29N 39°26' W 000°17'2 4.2
2018-Jun-11 15:00N 39°27' W 000°19'0 0.0
2018-Jun-11 14:30N 39°27' W 000°19'0 0.0
2018-Jun-11 14:00N 39°27' W 000°19'0 0.0
2018-Jun-11 13:30N 39°27' W 000°19'0 0.0
2018-Jun-11 13:00N 39°27' W 000°19'0 0.0
2018-Jun-11 12:30N 39°27' W 000°19'0 0.0
2018-Jun-11 12:00N 39°27' W 000°19'0 0.0
2018-Jun-11 11:30N 39°27' W 000°19'0 0.0
2018-Jun-11 11:00N 39°27' W 000°19'0 0.0
2018-Jun-11 10:30N 39°27' W 000°19'0 0.0
2018-Jun-11 09:57N 39°27' W 000°19'0 0.0
2018-Jun-11 09:30N 39°27' W 000°19'0 0.0
2018-Jun-11 09:00N 39°27' W 000°19'0 0.0
2018-Jun-11 08:30N 39°27' W 000°19'0 0.0
2018-Jun-11 08:00N 39°27' W 000°19'0 0.0
2018-Jun-11 07:30N 39°27' W 000°19'0 0.0
2018-Jun-11 07:00N 39°27' W 000°19'0 0.0
2018-Jun-11 06:30N 39°27' W 000°19'0 0.0
2018-Jun-11 06:00N 39°27' W 000°19'0 0.0
2018-Jun-11 05:30N 39°27' W 000°19'0 0.0
2018-Jun-11 05:00N 39°27' W 000°19'0 0.0
2018-Jun-11 04:30N 39°27' W 000°19'0 0.0
2018-Jun-11 04:00N 39°27' W 000°19'0 0.0
2018-Jun-11 03:27N 39°27' W 000°19'0 0.0
2018-Jun-11 03:00N 39°27' W 000°19'0 0.0
2018-Jun-11 02:30N 39°27' W 000°19'0 0.0
2018-Jun-11 02:00N 39°27' W 000°19'0 0.0
2018-Jun-11 01:30N 39°27' W 000°19'0 0.0
2018-Jun-11 01:00N 39°27' W 000°19'0 0.0
2018-Jun-11 00:30N 39°27' W 000°19'0 0.0
2018-Jun-11 00:00N 39°27' W 000°19'0 0.0
2018-Jun-10 23:30N 39°27' W 000°19'0 0.0
2018-Jun-10 23:00N 39°27' W 000°19'0 0.0
2018-Jun-10 22:30N 39°27' W 000°19'0 0.0
2018-Jun-10 22:00N 39°27' W 000°19'0 0.0
2018-Jun-10 21:30N 39°27' W 000°19'0 0.0
2018-Jun-10 21:00N 39°27' W 000°19'0 0.0
2018-Jun-10 20:30N 39°27' W 000°19'0 0.0
2018-Jun-10 20:00N 39°27' W 000°19'0 0.0
2018-Jun-10 19:30N 39°27' W 000°19'0 0.0
2018-Jun-10 19:00N 39°27' W 000°19'0 0.0
2018-Jun-10 18:30N 39°27' W 000°19'0 0.0
2018-Jun-10 18:00N 39°27' W 000°19'0 0.0
2018-Jun-10 17:30N 39°27' W 000°19'0 0.0
2018-Jun-10 17:00N 39°27' W 000°19'0 0.0
2018-Jun-10 16:30N 39°27' W 000°19'0 0.0
2018-Jun-10 16:00N 39°27' W 000°19'0 0.0
2018-Jun-10 15:30N 39°27' W 000°19'0 0.0
2018-Jun-10 15:00N 39°27' W 000°19'0 0.0
2018-Jun-10 14:30N 39°27' W 000°19'0 0.0
2018-Jun-10 13:30N 39°27' W 000°19'0 0.0
2018-Jun-10 13:00N 39°27' W 000°19'0 0.0
2018-Jun-10 12:30N 39°27' W 000°19'0 0.0
2018-Jun-10 12:00N 39°27' W 000°19'0 0.0
2018-Jun-10 11:30N 39°27' W 000°19'0 0.0
2018-Jun-10 11:00N 39°27' W 000°19'0 0.0
2018-Jun-10 10:30N 39°27' W 000°19'0 0.0
2018-Jun-10 10:00N 39°27' W 000°19'0 0.0
2018-Jun-10 09:29N 39°27' W 000°19'0 0.0
2018-Jun-10 08:59N 39°27' W 000°19'0 0.0
2018-Jun-10 08:29N 39°27' W 000°19'0 0.0
2018-Jun-10 07:59N 39°27' W 000°19'0 0.0
2018-Jun-10 07:29N 39°27' W 000°19'0 0.0
2018-Jun-10 06:59N 39°27' W 000°19'0 0.0
2018-Jun-10 06:29N 39°27' W 000°19'0 0.0
2018-Jun-10 05:59N 39°27' W 000°19'0 0.0
2018-Jun-10 05:29N 39°27' W 000°19'0 0.0
2018-Jun-10 04:59N 39°27' W 000°19'0 0.0
2018-Jun-10 04:29N 39°27' W 000°19'0 0.0
2018-Jun-10 03:59N 39°27' W 000°19'0 0.0
2018-Jun-10 03:29N 39°27' W 000°19'0 0.0
2018-Jun-10 02:59N 39°27' W 000°19'0 0.0
2018-Jun-10 02:29N 39°27' W 000°19'0 0.0
2018-Jun-10 01:59N 39°27' W 000°19'0 0.0
2018-Jun-10 01:29N 39°27' W 000°19'0 0.0
2018-Jun-10 00:59N 39°27' W 000°19'0 0.0
2018-Jun-10 00:29N 39°27' W 000°19'0 0.0
2018-Jun-09 23:59N 39°27' W 000°19'0 0.0
2018-Jun-09 23:29N 39°27' W 000°19'0 0.0
2018-Jun-09 22:59N 39°27' W 000°19'0 0.0
2018-Jun-09 22:29N 39°27' W 000°19'0 0.0
2018-Jun-09 21:59N 39°27' W 000°19'0 0.0
2018-Jun-09 21:29N 39°27' W 000°19'0 0.0
2018-Jun-09 20:59N 39°27' W 000°19'0 0.0
2018-Jun-09 20:29N 39°27' W 000°19'0 0.0
2018-Jun-09 19:59N 39°27' W 000°19'0 0.0
2018-Jun-09 19:29N 39°27' W 000°19'0 0.0
2018-Jun-09 18:59N 39°27' W 000°19'0 0.0
2018-Jun-09 18:20N 39°27' W 000°19'0 0.0
2018-Jun-09 17:50N 39°27' W 000°19'0 0.0
2018-Jun-09 17:29N 39°27' W 000°19'0 0.0
2018-Jun-09 16:59N 39°27' W 000°19'0 0.0
2018-Jun-09 16:29N 39°27' W 000°19'0 0.0
2018-Jun-09 15:59N 39°27' W 000°19'0 0.0
2018-Jun-09 14:59N 39°27' W 000°19'0 0.0
2018-Jun-09 14:29N 39°27' W 000°19'0 0.0
2018-Jun-09 13:59N 39°27' W 000°19'0 0.0
2018-Jun-09 13:29N 39°27' W 000°19'0 0.0
2018-Jun-09 12:59N 39°27' W 000°19'0 0.0
2018-Jun-09 12:29N 39°27' W 000°19'0 0.0
2018-Jun-09 11:59N 39°27' W 000°19'0 0.0
2018-Jun-09 11:29N 39°27' W 000°19'0 0.0
2018-Jun-09 10:59N 39°27' W 000°19'0 0.0
2018-Jun-09 10:29N 39°27' W 000°19'0 0.0
2018-Jun-09 09:59N 39°27' W 000°19'0 0.0
2018-Jun-09 09:29N 39°27' W 000°19'0 0.0
2018-Jun-09 08:59N 39°27' W 000°19'0 0.0
2018-Jun-09 08:29N 39°27' W 000°19'0 0.0
2018-Jun-09 07:59N 39°27' W 000°19'0 0.0
2018-Jun-09 07:29N 39°27' W 000°19'0 0.0
2018-Jun-09 06:59N 39°27' W 000°19'0 0.0
2018-Jun-09 06:29N 39°27' W 000°19'0 0.0
2018-Jun-09 05:59N 39°27' W 000°19'0 0.0
2018-Jun-09 05:29N 39°27' W 000°19'0 0.0
2018-Jun-09 04:59N 39°27' W 000°19'0 0.0
2018-Jun-09 04:29N 39°27' W 000°19'0 0.0
2018-Jun-09 03:59N 39°27' W 000°19'0 0.0
2018-Jun-09 03:29N 39°27' W 000°19'0 0.0
2018-Jun-09 02:59N 39°27' W 000°19'0 0.0
2018-Jun-09 02:29N 39°27' W 000°19'0 0.0
2018-Jun-09 01:59N 39°27' W 000°19'0 0.0
2018-Jun-09 01:29N 39°27' W 000°19'0 0.0
2018-Jun-09 00:59N 39°27' W 000°19'0 0.0
2018-Jun-09 00:29N 39°27' W 000°19'0 0.0
2018-Jun-08 23:59N 39°27' W 000°19'0 0.0
2018-Jun-08 23:29N 39°27' W 000°19'0 0.0
2018-Jun-08 22:59N 39°27' W 000°19'0 0.0
2018-Jun-08 22:28N 39°27' W 000°19'0 0.0
2018-Jun-08 21:58N 39°27' W 000°19'0 0.0
2018-Jun-08 21:28N 39°27' W 000°19'0 0.0
2018-Jun-08 20:52N 39°27' W 000°19'0 0.0
2018-Jun-08 20:28N 39°27' W 000°19'0 0.0
2018-Jun-08 19:58N 39°27' W 000°19'  

Dump ship's entire track history